Time;durP1;ratioP1;P1;durP2;ratioP2;P2;SDS_P1;SDS_P2;PMS_P1;PMS_P2;Temp;Humidity;BMP_temperature;BMP_pressure;BME280_temperature;BME280_humidity;BME280_pressure;Samples;Min_cycle;Max_cycle;Signal;HPM_P1;HPM_P2
2021/08/24 00:01:18;;;;;;;1.35;0.30;;;;;;;;;;5033123;28;20034;-67
2021/08/24 00:03:46;;;;;;;1.13;0.50;;;;;;;;;;5032073;28;20055;-66
2021/08/24 00:06:13;;;;;;;3.38;0.38;;;;;;;;;;5032994;28;20042;-67
2021/08/24 00:08:41;;;;;;;2.03;0.22;;;;;;;;;;5031164;28;20037;-66
2021/08/24 00:11:09;;;;;;;4.45;0.20;;;;;;;;;;5032807;28;20057;-66
2021/08/24 00:13:41;;;;;;;1.70;0.45;;;;;;;;;;5031417;28;20367;-66
2021/08/24 00:16:09;;;;;;;0.95;0.30;;;;;;;;;;5033472;28;20414;-67
2021/08/24 00:18:36;;;;;;;3.72;0.32;;;;;;;;;;5031158;28;20080;-67
2021/08/24 00:21:04;;;;;;;2.92;0.38;;;;;;;;;;5032773;28;20033;-66
2021/08/24 00:23:31;;;;;;;2.33;0.20;;;;;;;;;;5030868;28;20025;-67
2021/08/24 00:25:59;;;;;;;2.63;0.30;;;;;;;;;;5032725;28;20025;-67
2021/08/24 00:28:27;;;;;;;1.48;0.32;;;;;;;;;;5029689;28;20509;-67
2021/08/24 00:30:54;;;;;;;5.97;0.40;;;;;;;;;;5029631;28;20053;-65
2021/08/24 00:33:22;;;;;;;0.63;0.22;;;;;;;;;;5012554;28;20100;-65
2021/08/24 00:35:49;;;;;;;4.10;0.70;;;;;;;;;;5028593;28;20033;-65
2021/08/24 00:38:19;;;;;;;0.30;0.10;;;;;;;;;;5031424;28;20140;-66
2021/08/24 00:40:57;;;;;;;2.10;0.35;;;;;;;;;;5030004;28;20033;-65
2021/08/24 00:43:25;;;;;;;2.03;0.30;;;;;;;;;;5040152;28;20104;-66
2021/08/24 00:45:54;;;;;;;3.25;0.30;;;;;;;;;;5046641;28;20034;-67
2021/08/24 00:48:32;;;;;;;3.20;0.20;;;;;;;;;;5047962;28;20049;-65
2021/08/24 00:50:59;;;;;;;0.70;0.25;;;;;;;;;;5041928;28;20041;-66
2021/08/24 00:53:28;;;;;;;3.55;0.75;;;;;;;;;;5038162;28;20041;-68
2021/08/24 00:55:55;;;;;;;0.85;0.47;;;;;;;;;;5038338;28;20034;-66
2021/08/24 00:58:22;;;;;;;0.40;0.30;;;;;;;;;;5042742;28;20114;-67
2021/08/24 01:00:50;;;;;;;3.65;0.60;;;;;;;;;;5039977;28;20037;-67
2021/08/24 01:03:17;;;;;;;0.68;0.20;;;;;;;;;;5043704;28;20060;-67
2021/08/24 01:05:44;;;;;;;2.83;0.30;;;;;;;;;;5044262;28;20041;-66
2021/08/24 01:08:25;;;;;;;1.52;0.50;;;;;;;;;;5045548;28;20025;-68
2021/08/24 01:11:17;;;;;;;1.40;0.50;;;;;;;;;;5049880;28;20052;-64
2021/08/24 01:13:53;;;;;;;2.55;0.40;;;;;;;;;;5027549;28;20723;-67
2021/08/24 01:16:27;;;;;;;1.00;0.40;;;;;;;;;;5052869;28;20029;-67
2021/08/24 01:19:00;;;;;;;3.60;0.43;;;;;;;;;;5036074;28;20040;-67
2021/08/24 01:21:46;;;;;;;2.83;0.45;;;;;;;;;;5050779;28;20033;-67
2021/08/24 01:24:21;;;;;;;1.55;0.40;;;;;;;;;;5047228;28;20101;-65
2021/08/24 01:27:01;;;;;;;2.08;0.63;;;;;;;;;;5041908;28;20056;-66
2021/08/24 01:29:43;;;;;;;1.80;0.40;;;;;;;;;;5045642;28;20060;-66
2021/08/24 01:32:14;;;;;;;1.23;0.40;;;;;;;;;;5038674;28;20068;-68
2021/08/24 01:35:01;;;;;;;2.40;0.68;;;;;;;;;;5031146;28;20103;-68
2021/08/24 01:37:40;;;;;;;1.38;0.40;;;;;;;;;;5043049;28;20064;-67
2021/08/24 01:40:11;;;;;;;0.90;0.75;;;;;;;;;;5040144;28;20048;-67
2021/08/24 01:42:38;;;;;;;0.98;0.40;;;;;;;;;;5036860;28;20029;-68
2021/08/24 01:45:17;;;;;;;1.95;0.50;;;;;;;;;;5021691;28;20040;-67
2021/08/24 01:47:53;;;;;;;2.13;0.40;;;;;;;;;;5033275;28;20049;-67
2021/08/24 01:50:24;;;;;;;1.13;0.47;;;;;;;;;;5021945;28;20037;-67
2021/08/24 01:52:57;;;;;;;1.23;0.45;;;;;;;;;;5032950;28;20040;-68
2021/08/24 01:55:25;;;;;;;1.40;0.60;;;;;;;;;;5038932;28;20517;-67
2021/08/24 01:58:01;;;;;;;1.30;0.60;;;;;;;;;;5031112;28;20034;-67
2021/08/24 02:00:28;;;;;;;1.98;0.32;;;;;;;;;;5011440;28;20045;-68
2021/08/24 02:03:14;;;;;;;1.00;0.35;;;;;;;;;;5014474;28;20037;-68
2021/08/24 02:05:46;;;;;;;0.75;0.40;;;;;;;;;;5029054;28;20449;-68
2021/08/24 02:08:16;;;;;;;2.05;0.60;;;;;;;;;;5034372;28;20497;-68
2021/08/24 02:10:44;;;;;;;0.88;0.32;;;;;;;;;;5038476;28;20069;-68
2021/08/24 02:13:14;;;;;;;0.50;0.20;;;;;;;;;;5035151;28;20060;-69
2021/08/24 02:15:43;;;;;;;1.50;0.50;;;;;;;;;;5038454;28;20343;-69
2021/08/24 02:18:13;;;;;;;2.88;0.50;;;;;;;;;;5040022;28;20038;-69
2021/08/24 02:20:43;;;;;;;1.23;0.52;;;;;;;;;;5038853;28;20026;-68
2021/08/24 02:23:16;;;;;;;1.13;0.40;;;;;;;;;;5033332;28;20044;-67
2021/08/24 02:25:46;;;;;;;1.35;0.47;;;;;;;;;;5054508;28;20029;-68
2021/08/24 02:28:18;;;;;;;1.73;0.65;;;;;;;;;;5044212;28;20044;-67
2021/08/24 02:30:50;;;;;;;2.03;0.40;;;;;;;;;;5041734;28;20061;-70
2021/08/24 02:33:17;;;;;;;0.75;0.40;;;;;;;;;;5035557;28;20045;-68
2021/08/24 02:35:46;;;;;;;1.52;0.57;;;;;;;;;;5021416;28;20038;-70
2021/08/24 02:38:15;;;;;;;1.55;0.40;;;;;;;;;;5036393;28;20386;-70
2021/08/24 02:41:02;;;;;;;0.80;0.30;;;;;;;;;;5035784;28;20025;-68
2021/08/24 02:43:34;;;;;;;1.42;0.40;;;;;;;;;;5033313;28;20433;-68
2021/08/24 02:46:04;;;;;;;1.33;0.47;;;;;;;;;;5034938;28;20025;-68
2021/08/24 02:48:33;;;;;;;3.05;0.45;;;;;;;;;;5033359;28;20041;-69
2021/08/24 02:51:00;;;;;;;1.75;0.43;;;;;;;;;;5035675;28;20099;-69
2021/08/24 02:53:27;;;;;;;1.30;0.55;;;;;;;;;;5032470;28;20095;-69
2021/08/24 02:55:54;;;;;;;1.13;0.40;;;;;;;;;;5035545;28;20037;-69
2021/08/24 02:58:22;;;;;;;2.22;0.50;;;;;;;;;;5031718;28;20554;-70
2021/08/24 03:00:49;;;;;;;3.28;0.40;;;;;;;;;;5032001;28;20097;-68
2021/08/24 03:03:17;;;;;;;1.52;0.50;;;;;;;;;;5016765;28;20124;-69
2021/08/24 03:05:44;;;;;;;1.98;0.68;;;;;;;;;;5034173;28;20055;-69
2021/08/24 03:08:12;;;;;;;4.85;0.50;;;;;;;;;;5028680;28;20029;-67
2021/08/24 03:10:41;;;;;;;3.55;0.63;;;;;;;;;;5041584;28;20034;-68
2021/08/24 03:13:23;;;;;;;2.72;0.60;;;;;;;;;;5038341;28;20037;-69
2021/08/24 03:15:56;;;;;;;3.67;0.77;;;;;;;;;;5031955;28;20029;-68
2021/08/24 03:18:43;;;;;;;3.17;0.52;;;;;;;;;;5028235;28;20537;-69
2021/08/24 03:21:12;;;;;;;3.08;0.50;;;;;;;;;;5028685;28;20056;-69
2021/08/24 03:23:42;;;;;;;1.02;0.55;;;;;;;;;;5032612;28;20036;-68
2021/08/24 03:26:10;;;;;;;2.97;0.70;;;;;;;;;;5031814;28;20490;-69
2021/08/24 03:28:40;;;;;;;6.05;0.75;;;;;;;;;;5027973;28;20046;-69
2021/08/24 03:31:08;;;;;;;5.60;1.52;;;;;;;;;;5023888;28;20046;-69
2021/08/24 03:33:35;;;;;;;1.65;0.50;;;;;;;;;;5033225;28;20533;-68
2021/08/24 03:36:02;;;;;;;2.63;0.80;;;;;;;;;;5032266;28;20383;-68
2021/08/24 03:38:29;;;;;;;2.90;0.43;;;;;;;;;;5032929;28;20044;-68
2021/08/24 03:40:56;;;;;;;1.30;0.57;;;;;;;;;;5032160;28;20041;-70
2021/08/24 03:43:23;;;;;;;3.30;0.70;;;;;;;;;;5031209;28;20441;-67
2021/08/24 03:45:50;;;;;;;1.92;0.50;;;;;;;;;;5033662;28;20034;-69
2021/08/24 03:48:17;;;;;;;5.10;0.70;;;;;;;;;;5032065;28;20462;-69
2021/08/24 03:50:44;;;;;;;8.63;0.80;;;;;;;;;;5021731;28;20044;-68
2021/08/24 03:53:11;;;;;;;11.45;2.00;;;;;;;;;;5010934;28;20041;-66
2021/08/24 03:55:39;;;;;;;2.13;0.60;;;;;;;;;;5036003;28;20034;-67
2021/08/24 03:58:06;;;;;;;1.92;0.60;;;;;;;;;;5019034;28;20129;-66
2021/08/24 04:00:33;;;;;;;4.05;0.88;;;;;;;;;;5015583;28;20046;-68
2021/08/24 04:03:00;;;;;;;2.45;0.75;;;;;;;;;;5031315;28;20034;-67
2021/08/24 04:05:27;;;;;;;3.33;0.75;;;;;;;;;;5032050;28;20083;-65
2021/08/24 04:07:54;;;;;;;2.92;0.50;;;;;;;;;;5037273;28;20029;-67
2021/08/24 04:10:21;;;;;;;2.40;0.32;;;;;;;;;;5034033;28;20033;-69
2021/08/24 04:12:49;;;;;;;3.25;0.50;;;;;;;;;;5031806;28;20099;-68
2021/08/24 04:15:16;;;;;;;3.13;0.52;;;;;;;;;;5030967;28;20041;-66
2021/08/24 04:17:43;;;;;;;3.63;0.73;;;;;;;;;;5030555;28;20025;-68
2021/08/24 04:20:11;;;;;;;3.67;0.80;;;;;;;;;;5035555;28;20040;-69
2021/08/24 04:22:43;;;;;;;2.38;0.55;;;;;;;;;;5030591;28;20041;-68
2021/08/24 04:25:11;;;;;;;3.65;0.40;;;;;;;;;;5037062;28;20030;-68
2021/08/24 04:27:38;;;;;;;5.70;0.68;;;;;;;;;;5037806;28;20493;-67
2021/08/24 04:30:06;;;;;;;1.52;0.50;;;;;;;;;;5034089;28;20029;-68
2021/08/24 04:32:35;;;;;;;1.80;0.55;;;;;;;;;;5031307;28;20059;-70
2021/08/24 04:35:02;;;;;;;2.28;0.52;;;;;;;;;;5035621;28;20025;-67
2021/08/24 04:37:29;;;;;;;3.40;0.75;;;;;;;;;;5030362;28;20104;-69
2021/08/24 04:39:56;;;;;;;2.88;0.30;;;;;;;;;;5022530;28;20049;-69
2021/08/24 04:42:23;;;;;;;0.73;0.20;;;;;;;;;;5034271;28;20085;-67
2021/08/24 04:44:50;;;;;;;1.65;0.38;;;;;;;;;;5037312;28;20033;-68
2021/08/24 04:47:18;;;;;;;2.53;0.63;;;;;;;;;;5025455;28;20053;-67
2021/08/24 04:49:45;;;;;;;1.45;0.50;;;;;;;;;;5036394;28;20030;-69
2021/08/24 04:52:12;;;;;;;4.55;0.50;;;;;;;;;;5046016;28;20099;-66
2021/08/24 04:54:39;;;;;;;2.03;0.40;;;;;;;;;;5052065;28;20041;-67
2021/08/24 04:57:07;;;;;;;3.30;0.57;;;;;;;;;;5037156;28;20060;-68
2021/08/24 04:59:34;;;;;;;3.28;0.47;;;;;;;;;;5048123;28;20033;-66
2021/08/24 05:02:01;;;;;;;2.85;0.95;;;;;;;;;;5032325;28;20040;-67
2021/08/24 05:04:28;;;;;;;3.90;0.40;;;;;;;;;;5046383;28;20101;-67
2021/08/24 05:06:56;;;;;;;2.90;0.32;;;;;;;;;;5037798;28;20506;-67
2021/08/24 05:09:23;;;;;;;2.42;0.50;;;;;;;;;;5039512;28;20061;-67
2021/08/24 05:11:50;;;;;;;8.90;0.60;;;;;;;;;;5025118;28;20041;-66
2021/08/24 05:14:17;;;;;;;2.25;0.60;;;;;;;;;;5044403;28;20013;-66
2021/08/24 05:16:44;;;;;;;3.33;0.47;;;;;;;;;;5052464;28;20048;-67
2021/08/24 05:19:11;;;;;;;3.67;0.60;;;;;;;;;;5047098;28;20033;-68
2021/08/24 05:21:39;;;;;;;1.58;0.30;;;;;;;;;;5032812;28;20037;-69
2021/08/24 05:24:06;;;;;;;2.60;0.40;;;;;;;;;;5046862;28;20064;-69
2021/08/24 05:26:33;;;;;;;2.30;0.47;;;;;;;;;;5030621;28;20064;-65
2021/08/24 05:29:00;;;;;;;1.35;0.32;;;;;;;;;;5050459;28;20078;-67
2021/08/24 05:31:27;;;;;;;1.80;0.50;;;;;;;;;;5056215;28;20057;-66
2021/08/24 05:33:54;;;;;;;3.58;0.35;;;;;;;;;;5055440;28;20072;-66
2021/08/24 05:36:21;;;;;;;6.45;0.47;;;;;;;;;;5056145;28;20048;-67
2021/08/24 05:38:48;;;;;;;1.58;0.25;;;;;;;;;;5055836;28;20026;-68
2021/08/24 05:41:16;;;;;;;1.27;0.13;;;;;;;;;;5054726;28;20038;-66
2021/08/24 05:43:43;;;;;;;1.42;0.47;;;;;;;;;;5050570;28;20014;-66
2021/08/24 05:46:12;;;;;;;2.35;0.38;;;;;;;;;;5049624;28;20037;-66
2021/08/24 05:48:39;;;;;;;0.88;0.20;;;;;;;;;;5051616;28;20042;-67
2021/08/24 05:51:17;;;;;;;2.97;0.40;;;;;;;;;;5054748;28;20060;-67
2021/08/24 05:53:44;;;;;;;2.50;0.30;;;;;;;;;;5052807;28;20017;-66
2021/08/24 05:56:12;;;;;;;2.00;0.30;;;;;;;;;;5048637;28;20084;-67
2021/08/24 05:58:40;;;;;;;2.60;0.20;;;;;;;;;;5051081;28;20049;-68
2021/08/24 06:01:08;;;;;;;3.72;0.25;;;;;;;;;;5053259;28;20091;-67
2021/08/24 06:03:37;;;;;;;1.08;0.13;;;;;;;;;;5049466;28;20694;-67
2021/08/24 06:06:05;;;;;;;0.98;0.20;;;;;;;;;;5051794;28;20085;-70
2021/08/24 06:08:32;;;;;;;0.43;0.10;;;;;;;;;;5044246;28;20044;-67
2021/08/24 06:10:59;;;;;;;1.85;0.10;;;;;;;;;;5051790;28;20064;-67
2021/08/24 06:13:26;;;;;;;0.95;0.20;;;;;;;;;;5053921;28;20033;-66
2021/08/24 06:15:53;;;;;;;0.57;0.10;;;;;;;;;;5054400;28;20039;-66
2021/08/24 06:18:20;;;;;;;2.30;0.20;;;;;;;;;;5038641;28;20032;-67
2021/08/24 06:20:48;;;;;;;3.03;0.32;;;;;;;;;;5032039;28;20494;-64
2021/08/24 06:23:15;;;;;;;0.88;0.30;;;;;;;;;;5027788;28;20034;-67
2021/08/24 06:25:42;;;;;;;2.53;1.00;;;;;;;;;;5037398;28;20120;-67
2021/08/24 06:28:10;;;;;;;1.15;0.10;;;;;;;;;;5028333;28;20034;-67
2021/08/24 06:30:37;;;;;;;2.28;0.20;;;;;;;;;;5027504;28;20080;-67
2021/08/24 06:33:04;;;;;;;1.98;0.30;;;;;;;;;;5012151;28;20049;-67
2021/08/24 06:35:31;;;;;;;1.15;0.32;;;;;;;;;;5022151;28;20057;-67
2021/08/24 06:37:58;;;;;;;3.85;0.40;;;;;;;;;;5029899;28;20029;-67
2021/08/24 06:40:26;;;;;;;1.60;0.20;;;;;;;;;;5032610;28;20092;-66
2021/08/24 06:42:54;;;;;;;7.00;0.60;;;;;;;;;;5029483;28;20079;-68
2021/08/24 06:45:25;;;;;;;1.05;0.30;;;;;;;;;;5035878;28;20430;-69
2021/08/24 06:47:53;;;;;;;1.33;0.30;;;;;;;;;;5030987;28;20045;-70
2021/08/24 06:50:20;;;;;;;1.75;0.22;;;;;;;;;;5031402;28;20032;-70
2021/08/24 06:52:47;;;;;;;2.75;0.17;;;;;;;;;;5032875;28;20518;-68
2021/08/24 06:55:15;;;;;;;1.05;0.20;;;;;;;;;;5034817;28;20068;-69
2021/08/24 06:57:44;;;;;;;0.40;0.13;;;;;;;;;;5031302;28;20423;-69
2021/08/24 07:00:15;;;;;;;0.95;0.13;;;;;;;;;;5032168;28;20029;-69
2021/08/24 07:02:43;;;;;;;1.48;0.20;;;;;;;;;;5031419;28;20033;-71
2021/08/24 07:05:10;;;;;;;3.03;0.20;;;;;;;;;;5016153;28;20092;-70
2021/08/24 07:07:37;;;;;;;2.85;0.55;;;;;;;;;;5028860;28;20034;-69
2021/08/24 07:10:05;;;;;;;0.95;0.13;;;;;;;;;;5015211;28;20094;-71
2021/08/24 07:12:33;;;;;;;0.68;0.20;;;;;;;;;;5029221;28;20092;-70
2021/08/24 07:15:00;;;;;;;0.45;0.10;;;;;;;;;;5027446;28;20105;-69
2021/08/24 07:17:27;;;;;;;1.10;0.15;;;;;;;;;;5028283;28;20352;-71
2021/08/24 07:19:54;;;;;;;2.95;0.20;;;;;;;;;;5032328;28;20490;-70
2021/08/24 07:22:21;;;;;;;3.60;0.20;;;;;;;;;;5032610;28;20041;-69
2021/08/24 07:24:49;;;;;;;0.10;0.00;;;;;;;;;;5036007;28;20121;-68
2021/08/24 07:27:16;;;;;;;0.40;0.10;;;;;;;;;;5032897;28;20033;-68
2021/08/24 07:29:43;;;;;;;0.32;0.10;;;;;;;;;;5034542;28;20025;-70
2021/08/24 07:32:10;;;;;;;1.10;0.20;;;;;;;;;;5013790;28;20705;-69
2021/08/24 07:34:38;;;;;;;1.17;0.10;;;;;;;;;;5033983;28;20037;-69
2021/08/24 07:37:05;;;;;;;0.73;0.10;;;;;;;;;;5031898;28;20044;-70
2021/08/24 07:39:33;;;;;;;0.20;0.00;;;;;;;;;;5035699;28;20026;-70
2021/08/24 07:42:00;;;;;;;1.08;0.00;;;;;;;;;;5033819;28;20044;-70
2021/08/24 07:44:31;;;;;;;0.63;0.10;;;;;;;;;;5034669;28;20530;-69
2021/08/24 07:46:59;;;;;;;0.63;0.10;;;;;;;;;;5035160;28;20052;-70
2021/08/24 07:49:26;;;;;;;0.20;0.10;;;;;;;;;;5035087;28;20546;-69
2021/08/24 07:51:56;;;;;;;0.80;0.03;;;;;;;;;;5033775;28;20406;-68
2021/08/24 07:54:23;;;;;;;0.90;0.22;;;;;;;;;;5032526;28;20100;-69
2021/08/24 07:56:51;;;;;;;0.57;0.20;;;;;;;;;;5034550;28;20060;-70
2021/08/24 07:59:18;;;;;;;0.60;0.05;;;;;;;;;;5033603;28;20034;-70
2021/08/24 08:01:45;;;;;;;0.10;0.10;;;;;;;;;;5029245;28;20038;-70
2021/08/24 08:04:13;;;;;;;0.20;0.10;;;;;;;;;;5028859;28;20272;-69
2021/08/24 08:06:40;;;;;;;0.20;0.10;;;;;;;;;;5030525;28;20036;-69
2021/08/24 08:09:08;;;;;;;1.00;0.20;;;;;;;;;;5030450;28;20509;-70
2021/08/24 08:11:38;;;;;;;2.05;0.30;;;;;;;;;;5031468;28;20030;-69
2021/08/24 08:14:06;;;;;;;1.35;0.30;;;;;;;;;;5030009;28;20060;-69
2021/08/24 08:16:34;;;;;;;0.70;0.13;;;;;;;;;;5031180;28;20402;-69
2021/08/24 08:19:01;;;;;;;0.30;0.20;;;;;;;;;;5020508;28;20072;-69
2021/08/24 08:21:28;;;;;;;0.75;0.15;;;;;;;;;;5014928;28;20038;-69
2021/08/24 08:23:55;;;;;;;0.70;0.20;;;;;;;;;;5016951;28;20497;-69
2021/08/24 08:26:22;;;;;;;0.93;0.30;;;;;;;;;;5032811;28;20098;-68
2021/08/24 08:28:50;;;;;;;0.68;0.22;;;;;;;;;;5029964;28;20437;-69
2021/08/24 08:31:18;;;;;;;1.08;0.20;;;;;;;;;;5019882;28;20042;-69
2021/08/24 08:33:45;;;;;;;0.60;0.10;;;;;;;;;;5031212;28;20041;-70
2021/08/24 08:36:12;;;;;;;0.65;0.17;;;;;;;;;;5015353;28;20064;-69
2021/08/24 08:38:39;;;;;;;1.75;0.47;;;;;;;;;;5031819;28;20095;-69
2021/08/24 08:41:10;;;;;;;0.90;0.50;;;;;;;;;;5030167;28;20040;-68
2021/08/24 08:43:40;;;;;;;0.20;0.10;;;;;;;;;;5024240;28;20030;-69
2021/08/24 08:46:26;;;;;;;0.52;0.13;;;;;;;;;;5030072;28;20041;-69
2021/08/24 08:49:05;;;;;;;0.68;0.38;;;;;;;;;;5010806;28;20048;-68
2021/08/24 08:51:38;;;;;;;1.48;0.20;;;;;;;;;;5021800;28;20049;-69
2021/08/24 08:54:19;;;;;;;1.67;0.22;;;;;;;;;;5031359;28;20044;-68
2021/08/24 08:56:52;;;;;;;2.63;0.95;;;;;;;;;;5031385;28;20034;-69
2021/08/24 08:59:22;;;;;;;0.95;0.20;;;;;;;;;;5030350;28;20486;-69
2021/08/24 09:01:59;;;;;;;0.63;0.30;;;;;;;;;;5020145;28;20048;-68
2021/08/24 09:04:26;;;;;;;1.80;0.30;;;;;;;;;;5027847;28;20060;-68
2021/08/24 09:06:56;;;;;;;0.20;0.10;;;;;;;;;;5025956;28;20029;-69
2021/08/24 09:09:24;;;;;;;0.80;0.13;;;;;;;;;;5021845;28;20501;-68
2021/08/24 09:11:52;;;;;;;1.13;0.22;;;;;;;;;;5028095;28;20068;-68
2021/08/24 09:14:35;;;;;;;0.55;0.10;;;;;;;;;;5023326;28;20048;-69
2021/08/24 09:17:09;;;;;;;0.82;0.20;;;;;;;;;;5028189;28;20034;-68
2021/08/24 09:19:47;;;;;;;0.43;0.10;;;;;;;;;;5018191;28;20145;-67
2021/08/24 09:22:18;;;;;;;1.65;0.20;;;;;;;;;;5019623;28;20116;-67
2021/08/24 09:24:45;;;;;;;1.25;0.28;;;;;;;;;;5035332;28;20029;-68
2021/08/24 09:27:15;;;;;;;1.98;0.10;;;;;;;;;;5035497;28;20075;-68
2021/08/24 09:29:47;;;;;;;1.20;0.40;;;;;;;;;;5034420;28;20037;-69
2021/08/24 09:32:18;;;;;;;2.50;0.20;;;;;;;;;;5033874;28;20050;-69
2021/08/24 09:34:45;;;;;;;0.20;0.13;;;;;;;;;;5035794;28;20433;-67
2021/08/24 09:37:20;;;;;;;4.47;1.25;;;;;;;;;;5014062;28;20582;-68
2021/08/24 09:40:00;;;;;;;1.20;0.20;;;;;;;;;;5033047;28;20054;-69
2021/08/24 09:42:47;;;;;;;1.17;0.20;;;;;;;;;;5031435;28;20059;-69
2021/08/24 09:45:20;;;;;;;2.60;0.20;;;;;;;;;;5030971;28;20034;-69
2021/08/24 09:48:07;;;;;;;0.45;0.15;;;;;;;;;;5029399;28;20080;-68
2021/08/24 09:50:40;;;;;;;0.28;0.05;;;;;;;;;;5032744;28;20062;-67
2021/08/24 09:53:08;;;;;;;0.60;0.00;;;;;;;;;;5030272;28;20037;-68
2021/08/24 09:55:38;;;;;;;0.50;0.13;;;;;;;;;;5032190;28;20104;-69
2021/08/24 09:58:07;;;;;;;0.80;0.10;;;;;;;;;;5031769;28;20037;-69
2021/08/24 10:00:55;;;;;;;0.82;0.10;;;;;;;;;;5037164;28;20044;-69
2021/08/24 10:03:34;;;;;;;0.15;0.03;;;;;;;;;;5025228;28;20565;-67
2021/08/24 10:06:22;;;;;;;0.43;0.00;;;;;;;;;;5044229;28;20061;-68
2021/08/24 10:08:54;;;;;;;0.65;0.10;;;;;;;;;;5018731;28;20502;-68
2021/08/24 10:11:27;;;;;;;0.20;0.10;;;;;;;;;;5033782;28;20087;-69
2021/08/24 10:14:09;;;;;;;0.40;0.20;;;;;;;;;;5036440;28;20508;-68
2021/08/24 10:16:36;;;;;;;0.35;0.10;;;;;;;;;;5043690;28;20024;-69
2021/08/24 10:19:12;;;;;;;1.27;0.10;;;;;;;;;;5034874;28;20123;-68
2021/08/24 10:21:54;;;;;;;0.30;0.10;;;;;;;;;;5035840;28;20034;-68
2021/08/24 10:24:29;;;;;;;0.98;0.00;;;;;;;;;;5026888;28;20030;-68
2021/08/24 10:26:57;;;;;;;2.28;0.38;;;;;;;;;;5037307;28;20045;-69
2021/08/24 10:29:26;;;;;;;0.52;0.10;;;;;;;;;;5051214;28;20029;-69
2021/08/24 10:32:02;;;;;;;0.13;0.00;;;;;;;;;;5038009;28;20136;-69
2021/08/24 10:34:32;;;;;;;0.30;0.10;;;;;;;;;;5016197;28;20042;-69
2021/08/24 10:37:17;;;;;;;0.77;0.10;;;;;;;;;;5014582;28;20045;-69
2021/08/24 10:39:45;;;;;;;1.02;0.00;;;;;;;;;;5001038;28;20030;-68
2021/08/24 10:42:18;;;;;;;1.05;0.10;;;;;;;;;;5013621;28;20403;-69
2021/08/24 10:44:56;;;;;;;0.65;0.17;;;;;;;;;;5018896;28;20066;-67
2021/08/24 10:47:24;;;;;;;0.57;0.10;;;;;;;;;;5025523;28;20387;-67
2021/08/24 10:49:53;;;;;;;0.20;0.00;;;;;;;;;;5016041;28;20033;-69
2021/08/24 10:52:38;;;;;;;0.60;0.15;;;;;;;;;;5016470;28;20092;-69
2021/08/24 10:55:14;;;;;;;1.27;0.10;;;;;;;;;;5017182;28;20041;-69
2021/08/24 10:57:58;;;;;;;4.00;0.45;;;;;;;;;;5017645;28;20038;-69
2021/08/24 11:00:40;;;;;;;3.25;0.10;;;;;;;;;;5017397;28;20037;-68
2021/08/24 11:03:40;;;;;;;0.25;0.10;;;;;;;;;;5015937;28;20062;-69
2021/08/24 11:06:07;;;;;;;1.30;0.20;;;;;;;;;;4980513;28;20029;-70
2021/08/24 11:08:54;;;;;;;0.45;0.10;;;;;;;;;;5019752;28;20751;-68
2021/08/24 11:11:34;;;;;;;0.20;0.17;;;;;;;;;;5023713;28;20153;-72
2021/08/24 11:14:12;;;;;;;0.20;0.10;;;;;;;;;;5013008;28;20121;-70
2021/08/24 11:16:45;;;;;;;1.05;0.10;;;;;;;;;;5016051;28;20045;-70
2021/08/24 11:19:12;;;;;;;0.65;0.17;;;;;;;;;;5017684;28;20030;-70
2021/08/24 11:21:42;;;;;;;1.30;0.10;;;;;;;;;;5017032;28;20052;-71
2021/08/24 11:24:22;;;;;;;0.40;0.10;;;;;;;;;;5017754;28;20061;-69
2021/08/24 11:26:58;;;;;;;0.40;0.00;;;;;;;;;;5013189;28;20486;-70
2021/08/24 11:29:31;;;;;;;1.65;0.10;;;;;;;;;;5007855;28;20045;-70
2021/08/24 11:32:16;;;;;;;0.57;0.10;;;;;;;;;;5023803;28;20430;-70
2021/08/24 11:34:46;;;;;;;0.08;0.00;;;;;;;;;;5034124;28;20033;-70
2021/08/24 11:37:17;;;;;;;1.20;0.45;;;;;;;;;;5036084;28;20478;-70
2021/08/24 11:40:01;;;;;;;0.43;0.20;;;;;;;;;;5036307;28;20439;-70
2021/08/24 11:42:45;;;;;;;1.15;0.10;;;;;;;;;;5035887;28;20037;-71
2021/08/24 11:45:26;;;;;;;0.80;0.10;;;;;;;;;;5027842;28;20047;-69
2021/08/24 11:48:02;;;;;;;0.90;0.10;;;;;;;;;;5032817;28;20069;-70
2021/08/24 11:50:49;;;;;;;0.47;0.10;;;;;;;;;;5039595;28;20026;-69
2021/08/24 11:53:26;;;;;;;0.25;0.10;;;;;;;;;;5032230;28;20048;-69
2021/08/24 11:55:56;;;;;;;1.00;0.10;;;;;;;;;;5033226;28;20044;-69
2021/08/24 11:58:24;;;;;;;1.08;0.28;;;;;;;;;;5015407;28;20115;-69
2021/08/24 12:00:55;;;;;;;0.57;0.10;;;;;;;;;;5033268;28;20036;-70
2021/08/24 12:03:23;;;;;;;0.45;0.10;;;;;;;;;;5035417;28;20116;-70
2021/08/24 12:06:02;;;;;;;0.63;0.10;;;;;;;;;;5039650;28;20033;-68
2021/08/24 12:08:30;;;;;;;0.52;0.20;;;;;;;;;;5042319;28;20167;-69
2021/08/24 12:11:03;;;;;;;1.45;0.10;;;;;;;;;;5038748;28;20034;-69
2021/08/24 12:13:41;;;;;;;1.23;0.20;;;;;;;;;;5032731;28;20040;-68
2021/08/24 12:16:20;;;;;;;1.45;0.10;;;;;;;;;;5015137;28;20390;-69
2021/08/24 12:19:10;;;;;;;0.65;0.20;;;;;;;;;;5032101;28;20091;-70
2021/08/24 12:21:54;;;;;;;2.38;0.28;;;;;;;;;;5033337;28;20029;-70
2021/08/24 12:24:24;;;;;;;0.32;0.00;;;;;;;;;;5032032;28;20034;-69
2021/08/24 12:26:52;;;;;;;0.20;0.10;;;;;;;;;;5031273;28;20083;-69
2021/08/24 12:29:35;;;;;;;0.75;0.22;;;;;;;;;;5032281;28;20033;-70
2021/08/24 12:32:04;;;;;;;1.55;0.00;;;;;;;;;;5029576;28;20037;-70
2021/08/24 12:34:35;;;;;;;1.70;0.43;;;;;;;;;;5021541;28;20406;-70
2021/08/24 12:37:06;;;;;;;0.77;0.10;;;;;;;;;;5036099;28;21717;-70
2021/08/24 12:39:35;;;;;;;1.08;0.15;;;;;;;;;;5032881;28;20447;-69
2021/08/24 12:42:20;;;;;;;0.90;0.20;;;;;;;;;;5033311;28;20046;-69
2021/08/24 12:44:50;;;;;;;0.85;0.20;;;;;;;;;;5034622;28;20116;-70
2021/08/24 12:47:32;;;;;;;1.38;0.10;;;;;;;;;;5033622;28;20525;-70
2021/08/24 12:50:20;;;;;;;1.10;0.10;;;;;;;;;;5027463;28;20388;-70
2021/08/24 12:52:48;;;;;;;0.98;0.20;;;;;;;;;;4984841;28;20498;-69
2021/08/24 12:55:35;;;;;;;1.45;0.20;;;;;;;;;;5035627;28;20038;-69
2021/08/24 12:58:02;;;;;;;0.40;0.15;;;;;;;;;;5031889;28;20457;-69
2021/08/24 13:00:31;;;;;;;0.38;0.10;;;;;;;;;;5032213;28;20042;-70
2021/08/24 13:03:01;;;;;;;2.53;0.20;;;;;;;;;;5031713;28;20033;-70
2021/08/24 13:05:35;;;;;;;0.65;0.10;;;;;;;;;;5036969;28;20417;-70
2021/08/24 13:08:14;;;;;;;2.22;0.20;;;;;;;;;;5029133;28;20095;-69
2021/08/24 13:10:46;;;;;;;1.80;0.28;;;;;;;;;;5032330;28;20026;-69
2021/08/24 13:13:29;;;;;;;2.25;0.10;;;;;;;;;;5041633;28;20030;-69
2021/08/24 13:15:58;;;;;;;0.25;0.20;;;;;;;;;;5031688;28;20630;-69
2021/08/24 13:18:39;;;;;;;0.57;0.17;;;;;;;;;;5004309;28;20053;-71
2021/08/24 13:21:23;;;;;;;1.08;0.10;;;;;;;;;;5029457;28;20048;-69
2021/08/24 13:23:53;;;;;;;3.10;0.30;;;;;;;;;;5031550;28;20036;-69
2021/08/24 13:26:26;;;;;;;3.15;0.45;;;;;;;;;;5032151;28;20068;-70
2021/08/24 13:28:54;;;;;;;0.90;0.32;;;;;;;;;;5032018;28;20022;-71
2021/08/24 13:31:43;;;;;;;0.93;0.38;;;;;;;;;;5034203;28;20124;-71
2021/08/24 13:34:18;;;;;;;2.05;0.30;;;;;;;;;;5013285;28;20064;-70
2021/08/24 13:36:46;;;;;;;1.42;0.10;;;;;;;;;;4998703;28;20033;-68
2021/08/24 13:39:13;;;;;;;2.45;0.32;;;;;;;;;;5004220;28;20029;-68
2021/08/24 13:41:47;;;;;;;2.00;0.10;;;;;;;;;;5028050;28;20079;-69
2021/08/24 13:44:35;;;;;;;1.75;0.30;;;;;;;;;;5020203;28;20022;-69
2021/08/24 13:47:04;;;;;;;2.03;0.17;;;;;;;;;;5012941;28;20034;-69
2021/08/24 13:49:32;;;;;;;2.13;0.20;;;;;;;;;;5022530;28;20030;-69
2021/08/24 13:52:01;;;;;;;1.75;0.20;;;;;;;;;;5026633;28;20042;-69
2021/08/24 13:54:30;;;;;;;1.38;0.35;;;;;;;;;;5023439;28;20609;-69
2021/08/24 13:56:58;;;;;;;1.35;0.20;;;;;;;;;;5022598;28;20030;-71
2021/08/24 13:59:32;;;;;;;1.85;0.73;;;;;;;;;;5002826;28;20038;-70
2021/08/24 14:02:00;;;;;;;0.95;0.10;;;;;;;;;;5025014;28;20061;-71
2021/08/24 14:04:48;;;;;;;1.15;0.10;;;;;;;;;;5026886;28;20033;-70
2021/08/24 14:07:22;;;;;;;0.43;0.10;;;;;;;;;;5021368;28;20030;-69
2021/08/24 14:10:01;;;;;;;0.50;0.20;;;;;;;;;;5021254;28;20120;-69
2021/08/24 14:12:38;;;;;;;2.28;0.30;;;;;;;;;;5019873;28;20050;-70
2021/08/24 14:15:25;;;;;;;0.95;0.10;;;;;;;;;;5018291;28;20061;-70
2021/08/24 14:17:54;;;;;;;1.45;0.20;;;;;;;;;;5023326;28;20038;-71
2021/08/24 14:20:21;;;;;;;0.45;0.10;;;;;;;;;;5005120;28;20033;-70
2021/08/24 14:23:08;;;;;;;1.60;0.20;;;;;;;;;;5025536;28;20466;-69
2021/08/24 14:25:38;;;;;;;0.82;0.20;;;;;;;;;;5021496;28;20037;-69
2021/08/24 14:28:11;;;;;;;1.13;0.20;;;;;;;;;;5024468;28;20033;-69
2021/08/24 14:30:38;;;;;;;2.20;0.20;;;;;;;;;;5016395;28;20174;-69
2021/08/24 14:33:19;;;;;;;0.47;0.13;;;;;;;;;;5022913;28;20132;-70
2021/08/24 14:36:09;;;;;;;3.65;0.15;;;;;;;;;;5027145;28;20427;-69
2021/08/24 14:38:50;;;;;;;1.58;0.40;;;;;;;;;;4999600;28;20490;-68
2021/08/24 14:41:17;;;;;;;2.65;0.40;;;;;;;;;;5021059;28;20487;-69
2021/08/24 14:43:46;;;;;;;2.15;0.10;;;;;;;;;;5012626;28;20602;-69
2021/08/24 14:46:17;;;;;;;1.20;0.20;;;;;;;;;;5030253;28;20030;-69
2021/08/24 14:48:45;;;;;;;2.00;0.10;;;;;;;;;;5022151;28;20069;-69
2021/08/24 14:51:15;;;;;;;0.45;0.00;;;;;;;;;;5017330;28;20038;-69
2021/08/24 14:53:42;;;;;;;0.75;0.10;;;;;;;;;;5022375;28;20053;-68
2021/08/24 14:56:27;;;;;;;0.45;0.10;;;;;;;;;;5032428;28;20037;-69
2021/08/24 14:59:15;;;;;;;0.30;0.10;;;;;;;;;;5023024;28;20026;-69
2021/08/24 15:02:01;;;;;;;1.00;0.10;;;;;;;;;;5017217;28;20034;-69
2021/08/24 15:04:28;;;;;;;0.95;0.10;;;;;;;;;;5008762;28;20484;-69
2021/08/24 15:07:05;;;;;;;0.30;0.10;;;;;;;;;;5023252;28;20029;-68
2021/08/24 15:09:48;;;;;;;0.30;0.00;;;;;;;;;;5009927;28;20040;-69